Time;durP1;ratioP1;P1;durP2;ratioP2;P2;SDS_P1;SDS_P2;PMS_P1;PMS_P2;Temp;Humidity;BMP_temperature;BMP_pressure;BME280_temperature;BME280_humidity;BME280_pressure;Samples;Min_cycle;Max_cycle;Signal;HPM_P1;HPM_P2
2023/08/27 00:00:38;;;;;;;5.50;2.80;;;;;;;17.92;100.00;99719.31;4978036;28;20201;-78
2023/08/27 00:03:04;;;;;;;4.50;3.10;;;;;;;17.94;100.00;99720.94;4967752;28;20220;-78
2023/08/27 00:05:29;;;;;;;2.70;2.43;;;;;;;17.96;100.00;99724.31;4974459;28;20272;-78
2023/08/27 00:07:54;;;;;;;3.73;2.97;;;;;;;17.97;100.00;99715.59;4966387;28;20227;-79
2023/08/27 00:10:20;;;;;;;3.20;2.90;;;;;;;18.00;100.00;99703.28;4971966;28;20188;-79
2023/08/27 00:12:45;;;;;;;4.87;3.23;;;;;;;18.01;100.00;99686.66;4964406;28;20185;-79
2023/08/27 00:15:11;;;;;;;4.20;3.10;;;;;;;18.01;100.00;99697.13;4972245;28;20214;-79
2023/08/27 00:17:36;;;;;;;4.60;3.17;;;;;;;18.01;100.00;99720.69;4969127;28;20227;-78
2023/08/27 00:20:04;;;;;;;3.10;2.90;;;;;;;18.02;100.00;99731.06;4984882;28;20198;-78
2023/08/27 00:22:30;;;;;;;3.53;3.23;;;;;;;18.04;100.00;99742.31;4969090;28;20200;-78
2023/08/27 00:24:55;;;;;;;3.50;3.20;;;;;;;18.04;100.00;99755.41;4972239;28;20644;-79
2023/08/27 00:27:21;;;;;;;2.40;2.20;;;;;;;18.06;100.00;99763.22;4965156;28;20209;-78
2023/08/27 00:29:46;;;;;;;2.60;2.40;;;;;;;18.08;100.00;99769.19;4968290;28;20193;-79
2023/08/27 00:32:11;;;;;;;3.20;2.90;;;;;;;18.09;100.00;99787.47;4970329;28;20687;-78
2023/08/27 00:34:36;;;;;;;2.63;2.43;;;;;;;18.10;100.00;99786.53;4974003;28;20191;-79
2023/08/27 00:37:02;;;;;;;3.47;3.10;;;;;;;18.11;100.00;99767.28;4966174;28;20256;-78
2023/08/27 00:39:30;;;;;;;3.67;2.90;;;;;;;18.11;100.00;99772.53;4966432;28;20195;-79
2023/08/27 00:41:56;;;;;;;3.50;2.80;;;;;;;18.11;100.00;99769.91;4962378;28;20200;-78
2023/08/27 00:44:21;;;;;;;3.50;2.90;;;;;;;18.12;100.00;99774.22;4968908;28;20210;-79
2023/08/27 00:46:50;;;;;;;4.37;3.20;;;;;;;18.12;100.00;99763.75;4964395;28;20241;-79
2023/08/27 00:49:16;;;;;;;3.93;2.93;;;;;;;18.14;100.00;99766.28;4969825;28;20659;-78
2023/08/27 00:51:44;;;;;;;2.70;2.50;;;;;;;18.13;100.00;99754.09;4974438;28;20301;-79
2023/08/27 00:54:10;;;;;;;3.37;3.10;;;;;;;18.13;100.00;99735.78;4967332;28;20198;-78
2023/08/27 00:56:35;;;;;;;4.83;3.10;;;;;;;18.13;100.00;99741.03;4968096;28;20192;-78
2023/08/27 00:59:01;;;;;;;3.43;3.13;;;;;;;18.13;100.00;99746.25;4967671;28;20261;-79
2023/08/27 01:01:27;;;;;;;3.23;3.00;;;;;;;18.12;100.00;99752.41;4962716;28;20223;-78
2023/08/27 01:03:53;;;;;;;3.20;2.93;;;;;;;18.11;100.00;99753.34;4963419;28;20236;-78
2023/08/27 01:06:24;;;;;;;3.33;2.83;;;;;;;18.10;100.00;99747.25;4967683;28;20191;-79
2023/08/27 01:08:57;;;;;;;3.17;2.97;;;;;;;18.10;100.00;99752.50;4967512;28;20239;-78
2023/08/27 01:11:50;;;;;;;3.30;2.90;;;;;;;18.09;100.00;99748.19;4970636;28;20192;-78
2023/08/27 01:14:17;;;;;;;4.10;3.17;;;;;;;18.09;100.00;99740.34;4979449;28;20182;-78
2023/08/27 01:16:44;;;;;;;3.23;2.93;;;;;;;18.08;100.00;99738.63;4967324;28;20256;-78
2023/08/27 01:19:14;;;;;;;3.77;3.37;;;;;;;18.08;100.00;99722.06;4975339;28;20213;-78
2023/08/27 01:21:43;;;;;;;4.00;2.90;;;;;;;18.07;100.00;99726.47;4967702;28;20924;-78
2023/08/27 01:24:09;;;;;;;4.87;2.93;;;;;;;18.07;100.00;99718.59;4969259;28;20216;-79
2023/08/27 01:26:50;;;;;;;3.20;2.90;;;;;;;18.07;100.00;99709.91;4966962;28;20233;-78
2023/08/27 01:29:31;;;;;;;3.00;2.80;;;;;;;18.07;100.00;99697.66;4971833;28;20220;-79
2023/08/27 01:32:28;;;;;;;3.90;2.57;;;;;;;18.06;100.00;99703.00;4961169;28;20211;-79
2023/08/27 01:34:54;;;;;;;3.90;3.00;;;;;;;18.05;100.00;99715.22;4969812;28;20194;-78
2023/08/27 01:37:20;;;;;;;3.87;3.10;;;;;;;18.07;100.00;99738.72;4967017;28;20212;-78
2023/08/27 01:39:45;;;;;;;3.13;2.90;;;;;;;18.07;100.00;99736.09;4967895;28;20234;-79
2023/08/27 01:42:11;;;;;;;6.07;3.43;;;;;;;18.07;100.00;99742.16;4966130;28;20255;-79
2023/08/27 01:44:37;;;;;;;3.43;2.87;;;;;;;18.08;100.00;99740.38;4969499;28;20865;-78
2023/08/27 01:47:03;;;;;;;3.47;3.17;;;;;;;18.07;100.00;99720.38;4970440;28;20244;-78
2023/08/27 01:49:31;;;;;;;3.50;3.17;;;;;;;18.05;100.00;99696.88;4965047;28;20198;-78
2023/08/27 01:51:56;;;;;;;3.97;3.17;;;;;;;18.02;100.00;99670.84;4984822;28;20203;-79
2023/08/27 01:54:22;;;;;;;3.47;2.73;;;;;;;18.02;100.00;99676.09;4983359;28;22205;-78
2023/08/27 01:56:47;;;;;;;4.90;3.33;;;;;;;18.03;100.00;99666.47;4965270;28;20191;-79
2023/08/27 01:59:12;;;;;;;3.00;2.70;;;;;;;18.02;100.00;99654.31;4967984;28;20264;-79
2023/08/27 02:01:38;;;;;;;4.03;3.10;;;;;;;18.01;100.00;99655.22;4969871;28;20288;-79
2023/08/27 02:04:03;;;;;;;4.40;2.73;;;;;;;17.97;100.00;99646.66;4975456;28;20216;-79
2023/08/27 02:06:29;;;;;;;4.00;2.93;;;;;;;17.96;100.00;99637.94;4973387;28;20188;-79
2023/08/27 02:08:55;;;;;;;3.30;2.90;;;;;;;17.95;100.00;99632.78;4964094;28;20234;-79
2023/08/27 02:11:20;;;;;;;4.03;3.27;;;;;;;17.96;100.00;99648.41;4966919;28;20196;-79
2023/08/27 02:13:45;;;;;;;3.30;3.00;;;;;;;17.94;100.00;99652.88;4968474;28;20196;-78
2023/08/27 02:16:11;;;;;;;3.80;3.00;;;;;;;17.93;100.00;99664.25;4969556;28;20194;-79
2023/08/27 02:18:36;;;;;;;3.60;3.10;;;;;;;17.92;100.00;99672.22;4967103;28;20642;-78
2023/08/27 02:21:02;;;;;;;3.07;2.87;;;;;;;17.91;100.00;99674.00;4968210;28;20199;-80
2023/08/27 02:23:27;;;;;;;4.80;3.10;;;;;;;17.91;100.00;99676.59;4969445;28;21897;-79
2023/08/27 02:25:55;;;;;;;3.63;2.70;;;;;;;17.90;100.00;99668.81;4968941;28;20304;-79
2023/08/27 02:28:20;;;;;;;3.37;2.73;;;;;;;17.90;100.00;99658.34;4969100;28;20292;-79
2023/08/27 02:30:55;;;;;;;4.13;3.30;;;;;;;17.89;100.00;99667.13;4965081;28;20639;-79
2023/08/27 02:33:22;;;;;;;3.37;3.07;;;;;;;17.88;100.00;99668.91;4967770;28;20293;-79
2023/08/27 02:35:47;;;;;;;3.57;2.63;;;;;;;17.87;100.00;99667.22;4971368;28;20946;-80
2023/08/27 02:38:13;;;;;;;3.50;3.03;;;;;;;17.86;100.00;99651.56;4969087;28;20214;-79
2023/08/27 02:40:39;;;;;;;5.10;3.50;;;;;;;17.83;100.00;99657.81;4969129;28;20194;-78
2023/08/27 02:43:05;;;;;;;3.23;2.87;;;;;;;17.80;100.00;99664.03;4966124;28;20241;-79
2023/08/27 02:45:30;;;;;;;3.63;3.17;;;;;;;17.78;100.00;99680.72;4966653;28;20653;-79
2023/08/27 02:47:55;;;;;;;3.87;3.57;;;;;;;17.78;100.00;99704.28;4965716;28;20206;-79
2023/08/27 02:50:21;;;;;;;3.30;2.97;;;;;;;17.78;100.00;99699.91;4965744;28;20190;-79
2023/08/27 02:52:46;;;;;;;4.47;3.20;;;;;;;17.79;100.00;99698.13;4968238;28;20285;-79
2023/08/27 02:55:12;;;;;;;2.67;2.50;;;;;;;17.79;100.00;99691.13;4961407;28;20743;-79
2023/08/27 02:57:37;;;;;;;4.73;2.80;;;;;;;17.78;100.00;99686.81;4963638;28;20301;-80
2023/08/27 03:00:04;;;;;;;3.43;2.80;;;;;;;17.78;100.00;99670.25;4967208;28;20263;-79
2023/08/27 03:02:29;;;;;;;4.63;3.33;;;;;;;17.76;100.00;99648.56;4985173;28;20197;-80
2023/08/27 03:04:56;;;;;;;3.93;2.80;;;;;;;17.73;100.00;99653.94;4962207;28;20205;-79
2023/08/27 03:07:22;;;;;;;3.10;2.90;;;;;;;17.72;100.00;99666.16;4965869;28;20206;-79
2023/08/27 03:09:47;;;;;;;4.10;3.27;;;;;;;17.69;100.00;99655.88;4966139;28;20203;-79
2023/08/27 03:12:13;;;;;;;3.53;3.23;;;;;;;17.66;100.00;99645.56;4964934;28;20282;-79
2023/08/27 03:14:38;;;;;;;2.97;2.77;;;;;;;17.65;100.00;99642.06;4965055;28;20697;-79
2023/08/27 03:17:03;;;;;;;3.30;3.00;;;;;;;17.63;100.00;99638.69;4962273;28;20214;-80
2023/08/27 03:19:28;;;;;;;2.93;2.70;;;;;;;17.64;100.00;99645.59;4966381;28;20202;-79
2023/08/27 03:21:54;;;;;;;3.40;3.10;;;;;;;17.64;100.00;99623.84;4971958;28;20283;-79
2023/08/27 03:24:19;;;;;;;3.07;2.73;;;;;;;17.65;100.00;99629.00;4968819;28;20239;-79
2023/08/27 03:26:44;;;;;;;3.37;3.03;;;;;;;17.62;100.00;99636.97;4966159;28;20261;-79
2023/08/27 03:29:10;;;;;;;3.80;3.00;;;;;;;17.63;100.00;99632.63;4966534;28;20218;-78
2023/08/27 03:31:35;;;;;;;5.43;3.10;;;;;;;17.60;100.00;99625.78;4959166;28;20279;-78
2023/08/27 03:34:00;;;;;;;3.37;3.00;;;;;;;17.60;100.00;99654.56;4965746;28;20186;-78
2023/08/27 03:36:25;;;;;;;3.73;2.83;;;;;;;17.61;100.00;99658.88;4970013;28;20281;-78
2023/08/27 03:38:51;;;;;;;4.57;3.20;;;;;;;17.63;100.00;99661.41;4985745;28;20210;-78
2023/08/27 03:41:17;;;;;;;3.47;3.17;;;;;;;17.63;100.00;99664.84;4974383;28;20216;-78
2023/08/27 03:43:42;;;;;;;3.03;2.73;;;;;;;17.64;100.00;99656.06;4966465;28;20211;-79
2023/08/27 03:46:07;;;;;;;3.33;3.03;;;;;;;17.61;100.00;99661.47;4959555;28;20219;-78
2023/08/27 03:48:32;;;;;;;4.43;3.20;;;;;;;17.61;100.00;99663.22;4973054;28;20694;-79
2023/08/27 03:50:58;;;;;;;3.20;2.90;;;;;;;17.62;100.00;99665.75;4966999;28;20196;-78
2023/08/27 03:53:23;;;;;;;5.07;2.97;;;;;;;17.64;100.00;99660.47;4987444;28;20183;-78
2023/08/27 03:55:48;;;;;;;3.20;3.00;;;;;;;17.64;100.00;99663.09;4974854;28;20214;-78
2023/08/27 03:58:15;;;;;;;3.33;2.87;;;;;;;17.63;100.00;99669.25;4965361;28;20208;-78
2023/08/27 04:00:40;;;;;;;3.00;2.70;;;;;;;17.63;100.00;99677.09;4976837;28;20187;-78
2023/08/27 04:03:06;;;;;;;3.53;2.60;;;;;;;17.64;100.00;99661.31;4957337;28;20235;-78
2023/08/27 04:05:31;;;;;;;3.50;2.60;;;;;;;17.63;100.00;99649.16;4962449;28;20202;-78
2023/08/27 04:07:59;;;;;;;2.93;2.60;;;;;;;17.64;100.00;99647.41;4960968;28;20703;-79
2023/08/27 04:10:24;;;;;;;5.60;3.00;;;;;;;17.64;100.00;99629.91;4969926;28;20673;-79
2023/08/27 04:12:50;;;;;;;4.43;2.87;;;;;;;17.63;100.00;99637.84;4962166;28;20186;-78
2023/08/27 04:15:15;;;;;;;4.00;3.20;;;;;;;17.62;100.00;99647.44;4968160;28;20194;-78
2023/08/27 04:17:40;;;;;;;3.00;2.80;;;;;;;17.62;100.00;99654.47;4970154;28;20221;-78
2023/08/27 04:20:06;;;;;;;3.83;2.73;;;;;;;17.62;100.00;99646.63;4965365;28;20309;-78
2023/08/27 04:22:31;;;;;;;2.83;2.60;;;;;;;17.61;100.00;99635.31;4968718;28;20210;-78
2023/08/27 04:24:57;;;;;;;3.20;2.80;;;;;;;17.61;100.00;99629.22;4984750;28;21898;-79
2023/08/27 04:27:22;;;;;;;2.67;2.47;;;;;;;17.60;100.00;99625.78;4965612;28;20220;-78
2023/08/27 04:29:47;;;;;;;3.87;2.83;;;;;;;17.58;100.00;99626.75;4961192;28;20194;-78
2023/08/27 04:32:13;;;;;;;3.97;2.80;;;;;;;17.56;100.00;99611.13;4983074;28;20229;-78
2023/08/27 04:34:38;;;;;;;3.90;3.00;;;;;;;17.52;100.00;99610.44;4965797;28;20192;-79
2023/08/27 04:37:04;;;;;;;3.50;3.20;;;;;;;17.50;100.00;99622.75;4965811;28;20800;-79
2023/08/27 04:39:30;;;;;;;3.70;3.40;;;;;;;17.49;100.00;99628.91;4965657;28;20205;-79
2023/08/27 04:41:56;;;;;;;3.03;2.70;;;;;;;17.49;100.00;99628.91;4956677;28;20222;-79
2023/08/27 04:44:22;;;;;;;4.83;3.13;;;;;;;17.48;100.00;99613.25;4978190;28;20219;-80
2023/08/27 04:46:47;;;;;;;3.23;2.93;;;;;;;17.45;100.00;99608.22;4973217;28;20190;-79
2023/08/27 04:49:13;;;;;;;3.30;3.00;;;;;;;17.44;100.00;99604.72;4977514;28;20190;-78
2023/08/27 04:51:38;;;;;;;4.17;2.67;;;;;;;17.43;100.00;99623.13;4968869;28;20195;-79
2023/08/27 04:54:04;;;;;;;3.17;2.87;;;;;;;17.42;100.00;99635.34;4966169;28;20189;-79
2023/08/27 04:56:29;;;;;;;3.03;2.83;;;;;;;17.42;100.00;99644.97;4974222;28;20183;-79
2023/08/27 04:58:54;;;;;;;2.50;2.30;;;;;;;17.41;100.00;99649.34;4968193;28;20258;-78
2023/08/27 05:01:19;;;;;;;2.80;2.60;;;;;;;17.41;100.00;99645.88;4970009;28;20193;-78
2023/08/27 05:03:45;;;;;;;3.40;3.10;;;;;;;17.37;100.00;99646.03;4966598;28;20210;-78
2023/08/27 05:06:10;;;;;;;3.43;2.57;;;;;;;17.37;100.00;99638.19;4976557;28;20266;-77
2023/08/27 05:08:35;;;;;;;2.87;2.67;;;;;;;17.37;100.00;99637.34;4986897;28;20200;-78
2023/08/27 05:11:01;;;;;;;3.00;2.70;;;;;;;17.38;100.00;99628.56;4972392;28;20227;-79
2023/08/27 05:13:26;;;;;;;2.80;2.60;;;;;;;17.39;100.00;99629.41;4974740;28;20255;-77
2023/08/27 05:15:51;;;;;;;2.87;2.53;;;;;;;17.41;100.00;99638.88;4984201;28;20188;-78
2023/08/27 05:18:17;;;;;;;3.23;2.47;;;;;;;17.46;100.00;99646.53;4983555;28;20589;-78
2023/08/27 05:20:42;;;;;;;3.27;2.97;;;;;;;17.49;100.00;99639.38;4969010;28;20192;-77
2023/08/27 05:23:08;;;;;;;3.00;2.67;;;;;;;17.56;100.00;99647.75;4966950;28;20215;-78
2023/08/27 05:25:34;;;;;;;3.27;2.90;;;;;;;17.62;100.00;99641.38;4968586;28;20215;-78
2023/08/27 05:28:00;;;;;;;3.43;2.80;;;;;;;17.69;100.00;99645.41;4985512;28;20296;-78
2023/08/27 05:30:26;;;;;;;3.70;3.03;;;;;;;17.75;100.00;99655.56;4970983;28;20673;-78
2023/08/27 05:32:53;;;;;;;3.83;2.83;;;;;;;17.80;100.00;99642.25;4970466;28;20181;-78
2023/08/27 05:35:18;;;;;;;2.60;2.40;;;;;;;17.85;100.00;99635.03;4968522;28;20186;-78
2023/08/27 05:37:44;;;;;;;4.07;3.03;;;;;;;17.89;100.00;99623.47;4967483;28;20273;-78
2023/08/27 05:40:09;;;;;;;3.23;2.93;;;;;;;17.91;100.00;99616.41;4966536;28;20222;-81
2023/08/27 05:42:35;;;;;;;3.17;2.60;;;;;;;17.95;100.00;99606.63;4966576;28;20710;-78
2023/08/27 05:45:01;;;;;;;3.27;2.97;;;;;;;18.00;100.00;99614.25;4973793;28;20204;-78
2023/08/27 05:47:26;;;;;;;3.03;2.40;;;;;;;18.05;100.00;99626.19;4970452;28;20203;-78
2023/08/27 05:49:52;;;;;;;3.13;2.50;;;;;;;18.12;100.00;99614.50;4959514;28;20198;-81
2023/08/27 05:52:18;;;;;;;3.30;3.00;;;;;;;18.24;100.00;99610.38;4964769;28;20235;-78
2023/08/27 05:54:43;;;;;;;2.97;2.40;;;;;;;18.32;100.00;99619.63;4985005;28;20176;-78
2023/08/27 05:57:08;;;;;;;3.10;2.73;;;;;;;18.38;100.00;99614.03;4983760;28;20210;-78
2023/08/27 05:59:34;;;;;;;3.23;2.43;;;;;;;18.44;100.00;99629.47;4968735;28;20656;-79
2023/08/27 06:01:59;;;;;;;2.90;2.70;;;;;;;18.50;100.00;99644.88;4961275;28;20622;-79
2023/08/27 06:04:25;;;;;;;3.53;2.77;;;;;;;18.53;100.00;99636.81;4964624;28;20686;-79
2023/08/27 06:06:50;;;;;;;3.97;2.80;;;;;;;18.53;100.00;99639.44;4958781;28;20213;-79
2023/08/27 06:09:16;;;;;;;3.20;2.90;;;;;;;18.54;100.00;99643.75;4966106;28;20182;-80
2023/08/27 06:11:42;;;;;;;3.87;2.57;;;;;;;18.56;100.00;99639.28;4960529;28;20667;-79
2023/08/27 06:14:07;;;;;;;2.90;2.63;;;;;;;18.58;100.00;99640.06;4964341;28;20188;-79
2023/08/27 06:16:33;;;;;;;3.97;2.27;;;;;;;18.58;100.00;99645.31;4962841;28;20244;-79
2023/08/27 06:18:58;;;;;;;3.43;2.60;;;;;;;18.59;100.00;99641.75;4957122;28;20217;-79
2023/08/27 06:21:24;;;;;;;2.60;2.40;;;;;;;18.61;100.00;99641.66;4967344;28;20709;-80
2023/08/27 06:23:49;;;;;;;4.00;2.60;;;;;;;18.63;100.00;99638.97;4958082;28;20245;-79
2023/08/27 06:26:15;;;;;;;2.93;2.63;;;;;;;18.64;100.00;99641.50;4960561;28;20222;-79
2023/08/27 06:28:40;;;;;;;7.00;2.50;;;;;;;18.68;100.00;99640.41;4961223;28;20241;-79
2023/08/27 06:31:05;;;;;;;3.17;2.60;;;;;;;18.73;100.00;99640.16;4960614;28;20185;-79
2023/08/27 06:33:31;;;;;;;3.17;2.87;;;;;;;18.77;100.00;99627.75;4967116;28;20200;-79
2023/08/27 06:35:56;;;;;;;2.77;2.37;;;;;;;18.82;100.00;99626.59;4959715;28;20835;-79
2023/08/27 06:38:22;;;;;;;4.73;2.70;;;;;;;18.83;100.00;99617.75;4964068;28;20208;-79
2023/08/27 06:40:47;;;;;;;2.93;2.73;;;;;;;18.85;100.00;99630.81;4967714;28;20197;-79
2023/08/27 06:43:13;;;;;;;3.23;2.60;;;;;;;18.83;100.00;99638.75;4958770;28;20226;-79
2023/08/27 06:45:38;;;;;;;2.70;2.50;;;;;;;18.83;100.00;99643.97;4970147;28;20616;-78
2023/08/27 06:48:04;;;;;;;3.87;2.40;;;;;;;18.83;100.00;99646.59;4963426;28;20216;-79
2023/08/27 06:50:29;;;;;;;3.73;2.57;;;;;;;18.84;100.00;99639.59;4966448;28;20193;-79
2023/08/27 06:52:54;;;;;;;2.60;2.40;;;;;;;18.85;100.00;99650.00;4973748;28;20559;-79
2023/08/27 06:55:20;;;;;;;3.10;2.70;;;;;;;18.87;100.00;99661.25;4963745;28;20193;-80
2023/08/27 06:57:45;;;;;;;2.87;2.67;;;;;;;18.89;100.00;99648.06;4966176;28;20335;-78
2023/08/27 07:00:11;;;;;;;3.23;2.93;;;;;;;18.91;100.00;99648.81;4974852;28;20267;-79
2023/08/27 07:02:37;;;;;;;3.00;2.37;;;;;;;18.95;100.00;99637.28;4974999;28;20284;-81
2023/08/27 07:05:08;;;;;;;4.13;2.30;;;;;;;19.01;100.00;99629.09;4974704;28;20265;-79
2023/08/27 07:07:34;;;;;;;4.80;3.13;;;;;;;19.09;100.00;99619.94;4966848;28;20210;-78
2023/08/27 07:10:02;;;;;;;2.93;2.63;;;;;;;19.21;100.00;99618.41;4968294;28;20192;-78
2023/08/27 07:12:28;;;;;;;3.57;2.70;;;;;;;19.34;100.00;99619.41;4968665;28;20189;-79
2023/08/27 07:14:53;;;;;;;4.43;2.70;;;;;;;19.46;100.00;99610.84;4971133;28;20188;-79
2023/08/27 07:17:18;;;;;;;3.43;3.13;;;;;;;19.58;100.00;99611.94;4970451;28;20219;-78
2023/08/27 07:19:44;;;;;;;3.37;2.60;;;;;;;19.69;100.00;99613.09;4966670;28;20264;-79
2023/08/27 07:22:09;;;;;;;3.00;2.60;;;;;;;19.83;100.00;99607.88;4966270;28;20190;-78
2023/08/27 07:24:35;;;;;;;3.00;2.60;;;;;;;20.01;100.00;99618.25;4977616;28;20240;-81
2023/08/27 07:27:01;;;;;;;6.33;3.13;;;;;;;20.18;100.00;99618.13;4974095;28;20247;-79
2023/08/27 07:29:27;;;;;;;4.60;2.63;;;;;;;20.33;100.00;99641.78;4971041;28;20213;-78
2023/08/27 07:31:52;;;;;;;4.40;2.73;;;;;;;20.43;100.00;99645.53;4973828;28;20198;-80
2023/08/27 07:34:18;;;;;;;4.33;2.60;;;;;;;20.55;100.00;99662.34;4972447;28;20654;-79
2023/08/27 07:36:43;;;;;;;4.20;2.77;;;;;;;20.62;100.00;99663.69;4973534;28;20201;-81
2023/08/27 07:39:08;;;;;;;3.33;2.40;;;;;;;20.70;100.00;99681.63;4971814;28;20197;-80
2023/08/27 07:41:33;;;;;;;5.23;2.80;;;;;;;20.75;100.00;99691.84;4976588;28;20225;-80
2023/08/27 07:43:59;;;;;;;3.00;2.70;;;;;;;20.81;100.00;99699.38;4969008;28;20209;-80
2023/08/27 07:46:24;;;;;;;6.13;2.90;;;;;;;20.87;100.00;99704.28;4969957;28;20213;-80
2023/08/27 07:48:49;;;;;;;3.10;2.70;;;;;;;20.91;100.00;99703.16;4971392;28;20205;-81
2023/08/27 07:51:15;;;;;;;3.33;2.83;;;;;;;20.90;100.00;99697.97;4982935;28;20190;-81
2023/08/27 07:53:40;;;;;;;3.60;2.60;;;;;;;20.88;100.00;99695.44;4981234;28;20193;-80
2023/08/27 07:56:06;;;;;;;3.13;2.93;;;;;;;20.88;100.00;99692.81;4969787;28;20194;-80
2023/08/27 07:58:31;;;;;;;4.27;2.97;;;;;;;20.90;100.00;99693.56;4971355;28;20217;-79
2023/08/27 08:01:02;;;;;;;2.87;2.60;;;;;;;20.87;100.00;99693.75;4972028;28;20194;-80
2023/08/27 08:03:28;;;;;;;3.13;2.53;;;;;;;20.85;100.00;99706.16;4968849;28;20305;-80
2023/08/27 08:05:53;;;;;;;3.20;2.90;;;;;;;20.82;100.00;99701.94;4972521;28;20729;-80
2023/08/27 08:08:18;;;;;;;3.17;2.80;;;;;;;20.87;100.00;99699.00;4985821;28;20205;-81
2023/08/27 08:10:44;;;;;;;2.90;2.43;;;;;;;20.86;100.00;99692.91;4965387;28;20196;-79
2023/08/27 08:13:09;;;;;;;3.30;3.00;;;;;;;20.87;100.00;99688.50;4968421;28;20190;-80
2023/08/27 08:15:34;;;;;;;4.87;2.63;;;;;;;20.92;100.00;99696.94;4967875;28;20186;-79
2023/08/27 08:18:00;;;;;;;2.37;2.20;;;;;;;20.98;100.00;99703.63;4972697;28;20221;-80
2023/08/27 08:20:25;;;;;;;2.70;2.47;;;;;;;21.00;100.00;99714.88;4970563;28;20182;-80
2023/08/27 08:22:50;;;;;;;3.53;2.83;;;;;;;21.05;100.00;99714.59;4968405;28;20182;-80
2023/08/27 08:25:16;;;;;;;4.83;2.63;;;;;;;21.09;100.00;99714.31;4967387;28;20198;-79
2023/08/27 08:27:41;;;;;;;5.30;2.43;;;;;;;21.18;100.00;99705.00;4964953;28;20207;-81
2023/08/27 08:30:07;;;;;;;4.77;2.63;;;;;;;21.21;100.00;99722.38;4964307;28;20277;-80
2023/08/27 08:32:32;;;;;;;4.53;2.77;;;;;;;21.27;100.00;99724.63;4970567;28;20284;-80
2023/08/27 08:34:57;;;;;;;3.27;2.50;;;;;;;21.35;100.00;99726.78;4984223;28;20189;-79
2023/08/27 08:37:23;;;;;;;3.27;2.83;;;;;;;21.46;100.00;99714.63;4974320;28;20307;-80
2023/08/27 08:39:48;;;;;;;2.93;2.67;;;;;;;21.55;100.00;99702.69;4970916;28;20189;-79
2023/08/27 08:42:32;;;;;;;2.70;2.50;;;;;;;21.60;100.00;99705.88;4965087;28;20204;-78
2023/08/27 08:45:07;;;;;;;2.87;2.67;;;;;;;21.73;100.00;99691.91;4966587;28;20244;-80
2023/08/27 08:47:35;;;;;;;4.10;2.50;;;;;;;21.89;100.00;99695.22;4968217;28;20236;-80
2023/08/27 08:50:05;;;;;;;3.60;2.50;;;;;;;22.05;100.00;99705.59;4989209;28;20201;-79
2023/08/27 08:52:36;;;;;;;4.43;2.43;;;;;;;22.20;100.00;99711.63;4967651;28;20224;-81
2023/08/27 08:55:06;;;;;;;3.10;2.37;;;;;;;22.37;100.00;99715.78;4970243;28;20182;-80
2023/08/27 08:57:36;;;;;;;2.93;2.53;;;;;;;22.53;100.00;99707.69;4964720;28;20205;-80
2023/08/27 09:00:02;;;;;;;2.57;2.17;;;;;;;22.67;100.00;99700.63;4966717;28;20191;-80
2023/08/27 09:02:27;;;;;;;4.07;2.60;;;;;;;22.75;100.00;99714.13;4968498;28;20202;-80
2023/08/27 09:04:54;;;;;;;3.70;2.67;;;;;;;22.82;100.00;99719.84;4962767;28;20202;-79
2023/08/27 09:07:20;;;;;;;2.73;2.40;;;;;;;22.80;100.00;99706.72;4967475;28;20241;-80
2023/08/27 09:09:48;;;;;;;3.00;2.30;;;;;;;22.91;100.00;99711.25;4970888;28;20190;-81
2023/08/27 09:12:15;;;;;;;3.87;2.47;;;;;;;23.11;100.00;99704.56;4965805;28;20221;-79
2023/08/27 09:14:40;;;;;;;3.60;2.13;;;;;;;23.23;100.00;99704.69;4967545;28;20197;-79
2023/08/27 09:17:07;;;;;;;3.10;2.40;;;;;;;23.27;100.00;99693.81;4969014;28;20839;-79
2023/08/27 09:19:33;;;;;;;2.67;2.47;;;;;;;23.24;100.00;99690.53;4967847;28;20653;-80
2023/08/27 09:21:59;;;;;;;2.20;2.00;;;;;;;23.22;100.00;99695.94;4961003;28;20213;-78
2023/08/27 09:24:24;;;;;;;3.03;2.43;;;;;;;23.17;100.00;99682.19;4965271;28;20922;-79
2023/08/27 09:26:49;;;;;;;2.43;2.23;;;;;;;23.17;100.00;99670.78;4962236;28;20209;-81
2023/08/27 09:29:17;;;;;;;2.60;1.87;;;;;;;23.07;100.00;99663.50;4967701;28;20248;-78
2023/08/27 09:31:44;;;;;;;2.33;2.13;;;;;;;22.98;100.00;99643.06;4962845;28;20195;-80
2023/08/27 09:34:11;;;;;;;2.10;1.90;;;;;;;22.90;100.00;99650.72;4965784;28;20209;-79
2023/08/27 09:36:37;;;;;;;2.30;2.00;;;;;;;22.89;100.00;99662.22;4962887;28;20201;-80
2023/08/27 09:39:10;;;;;;;3.07;2.30;;;;;;;22.95;100.00;99674.94;4964247;28;20210;-78
2023/08/27 09:41:37;;;;;;;2.53;2.20;;;;;;;22.98;100.00;99674.75;4963565;28;20205;-80
2023/08/27 09:44:03;;;;;;;2.93;2.20;;;;;;;22.99;100.00;99679.06;4973091;28;20229;-80
2023/08/27 09:46:28;;;;;;;2.83;2.40;;;;;;;23.12;100.00;99690.44;4968922;28;20242;-79
2023/08/27 09:48:58;;;;;;;3.43;2.17;;;;;;;23.19;100.00;99690.00;4976410;28;20221;-80
2023/08/27 09:51:24;;;;;;;3.00;2.20;;;;;;;23.31;100.00;99685.66;4965319;28;20198;-80
2023/08/27 09:53:49;;;;;;;3.40;2.17;;;;;;;23.41;100.00;99671.69;4965625;28;20213;-79
2023/08/27 09:56:21;;;;;;;2.17;1.97;;;;;;;23.58;99.82;99678.38;4965654;28;20189;-80
2023/08/27 09:58:46;;;;;;;2.03;1.77;;;;;;;23.74;98.24;99679.91;4979337;28;20325;-79
2023/08/27 10:01:11;;;;;;;2.00;1.77;;;;;;;23.92;97.67;99668.88;4979289;28;20722;-80
2023/08/27 10:03:37;;;;;;;4.20;2.43;;;;;;;24.03;96.45;99655.78;4979444;28;20216;-80
2023/08/27 10:06:03;;;;;;;2.70;1.90;;;;;;;24.19;96.06;99660.72;4968372;28;20205;-80
2023/08/27 10:08:28;;;;;;;3.03;2.20;;;;;;;24.31;95.04;99669.53;4968262;28;20224;-80
2023/08/27 10:11:10;;;;;;;3.00;1.90;;;;;;;24.33;94.13;99673.72;4966930;28;20197;-79
2023/08/27 10:13:39;;;;;;;2.53;2.00;;;;;;;24.54;94.07;99670.41;4966056;28;20192;-79
2023/08/27 10:16:05;;;;;;;2.20;2.00;;;;;;;24.69;93.17;99675.44;4963464;28;20189;-79
2023/08/27 10:18:33;;;;;;;4.13;2.10;;;;;;;24.71;92.50;99666.44;4978225;28;21600;-83
2023/08/27 10:20:59;;;;;;;3.00;2.10;;;;;;;24.83;92.79;99661.16;4965146;28;21071;-81
2023/08/27 10:23:25;;;;;;;2.13;1.93;;;;;;;25.02;92.36;99663.19;4963336;28;20214;-79
2023/08/27 10:25:53;;;;;;;2.10;1.90;;;;;;;25.12;92.13;99650.91;4963988;28;20589;-79
2023/08/27 10:28:20;;;;;;;1.80;1.70;;;;;;;25.22;91.72;99656.31;4962555;28;20229;-79
2023/08/27 10:30:45;;;;;;;2.30;1.90;;;;;;;25.24;90.91;99654.38;4980798;28;20569;-83
2023/08/27 10:33:11;;;;;;;2.73;1.97;;;;;;;25.10;89.99;99643.09;4967843;28;20277;-78
2023/08/27 10:35:40;;;;;;;2.20;2.00;;;;;;;24.93;90.50;99656.84;4984581;28;20671;-78
2023/08/27 10:38:08;;;;;;;3.00;1.70;;;;;;;24.78;90.74;99656.22;4963505;28;20209;-80
2023/08/27 10:40:36;;;;;;;3.53;2.30;;;;;;;24.69;90.97;99668.34;4964518;28;20234;-80
2023/08/27 10:43:08;;;;;;;2.60;2.10;;;;;;;24.72;91.56;99660.19;4967740;28;20563;-79
2023/08/27 10:45:40;;;;;;;20.30;3.93;;;;;;;24.88;91.02;99656.34;4963038;28;20694;-79
2023/08/27 10:48:23;;;;;;;3.67;2.20;;;;;;;25.09;90.13;99656.44;4965299;28;20634;-79
2023/08/27 10:50:54;;;;;;;3.63;2.00;;;;;;;25.23;88.61;99666.75;4961589;28;20178;-79
2023/08/27 10:53:21;;;;;;;2.40;1.67;;;;;;;25.19;88.73;99667.13;4964031;28;20254;-78
2023/08/27 10:55:50;;;;;;;2.40;2.03;;;;;;;25.43;87.66;99656.41;4969559;28;20212;-80
2023/08/27 10:58:26;;;;;;;2.97;2.07;;;;;;;25.20;86.19;99655.59;4967579;28;20241;-80
2023/08/27 11:01:04;;;;;;;3.90;1.97;;;;;;;24.90;87.14;99651.78;4967727;28;20180;-80
2023/08/27 11:03:57;;;;;;;3.20;2.20;;;;;;;24.87;89.38;99647.59;4965074;28;20291;-81
2023/08/27 11:06:40;;;;;;;2.87;1.80;;;;;;;24.52;90.05;99640.56;4966819;28;20359;-78
2023/08/27 11:09:14;;;;;;;2.13;1.93;;;;;;;24.87;89.77;99644.94;4967789;28;20213;-79
2023/08/27 11:11:43;;;;;;;1.90;1.60;;;;;;;25.15;89.04;99652.44;4971027;28;20247;-79
2023/08/27 11:14:09;;;;;;;2.37;1.80;;;;;;;25.38;87.33;99653.25;4968547;28;20186;-79
2023/08/27 11:16:51;;;;;;;3.90;2.83;;;;;;;25.23;86.23;99642.09;4962953;28;20211;-79
2023/08/27 11:19:30;;;;;;;4.77;4.10;;;;;;;25.45;86.27;99640.38;4966285;28;20186;-80
2023/08/27 11:22:20;;;;;;;5.47;2.67;;;;;;;25.37;86.52;99649.75;4969202;28;20188;-80
2023/08/27 11:24:52;;;;;;;2.63;2.10;;;;;;;25.60;86.88;99638.28;4984385;28;20193;-79